sensor_id;sensor_type;location;lat;lon;timestamp;P1;durP1;ratioP1;P2;durP2;ratioP2
61127;SDS011;47013;42.664;23.242;2024-03-23T00:52:56;6.95;;;3.28;;
61127;SDS011;47013;42.664;23.242;2024-03-23T00:55:21;7.28;;;3.33;;
61127;SDS011;47013;42.664;23.242;2024-03-23T00:57:47;8.20;;;3.90;;
61127;SDS011;47013;42.664;23.242;2024-03-23T01:00:12;9.13;;;3.88;;
61127;SDS011;47013;42.664;23.242;2024-03-23T01:02:38;7.72;;;3.85;;
61127;SDS011;47013;42.664;23.242;2024-03-23T01:05:03;8.10;;;4.10;;
61127;SDS011;47013;42.664;23.242;2024-03-23T01:07:29;7.35;;;3.97;;
61127;SDS011;47013;42.664;23.242;2024-03-23T01:09:54;9.73;;;4.70;;
61127;SDS011;47013;42.664;23.242;2024-03-23T01:12:20;9.25;;;4.50;;
61127;SDS011;47013;42.664;23.242;2024-03-23T01:14:45;10.15;;;4.80;;
61127;SDS011;47013;42.664;23.242;2024-03-23T01:17:10;10.18;;;4.68;;
61127;SDS011;47013;42.664;23.242;2024-03-23T01:19:36;8.98;;;4.70;;
61127;SDS011;47013;42.664;23.242;2024-03-23T01:22:01;8.57;;;4.38;;
61127;SDS011;47013;42.664;23.242;2024-03-23T01:24:26;9.15;;;4.00;;
61127;SDS011;47013;42.664;23.242;2024-03-23T01:26:52;9.02;;;4.18;;
61127;SDS011;47013;42.664;23.242;2024-03-23T01:29:17;7.65;;;3.60;;
61127;SDS011;47013;42.664;23.242;2024-03-23T01:31:42;7.88;;;3.58;;
61127;SDS011;47013;42.664;23.242;2024-03-23T01:34:08;7.47;;;3.72;;
61127;SDS011;47013;42.664;23.242;2024-03-23T01:36:33;7.43;;;3.40;;
61127;SDS011;47013;42.664;23.242;2024-03-23T01:38:58;7.22;;;3.50;;
61127;SDS011;47013;42.664;23.242;2024-03-23T01:41:24;7.88;;;3.47;;
61127;SDS011;47013;42.664;23.242;2024-03-23T01:43:49;8.98;;;3.42;;
61127;SDS011;47013;42.664;23.242;2024-03-23T01:46:15;8.77;;;3.95;;
61127;SDS011;47013;42.664;23.242;2024-03-23T01:48:41;9.57;;;4.25;;
61127;SDS011;47013;42.664;23.242;2024-03-23T01:51:07;12.32;;;5.10;;
61127;SDS011;47013;42.664;23.242;2024-03-23T01:53:32;12.75;;;4.50;;
61127;SDS011;47013;42.664;23.242;2024-03-23T01:55:58;11.65;;;5.15;;
61127;SDS011;47013;42.664;23.242;2024-03-23T01:58:23;10.18;;;4.70;;
61127;SDS011;47013;42.664;23.242;2024-03-23T02:00:49;10.73;;;5.30;;
61127;SDS011;47013;42.664;23.242;2024-03-23T02:05:49;11.80;;;5.53;;
61127;SDS011;47013;42.664;23.242;2024-03-23T02:08:16;11.98;;;6.30;;
61127;SDS011;47013;42.664;23.242;2024-03-23T02:10:43;13.23;;;6.60;;
61127;SDS011;47013;42.664;23.242;2024-03-23T02:13:09;16.10;;;6.85;;
61127;SDS011;47013;42.664;23.242;2024-03-23T02:15:34;13.90;;;7.03;;
61127;SDS011;47013;42.664;23.242;2024-03-23T02:18:00;15.95;;;7.25;;
61127;SDS011;47013;42.664;23.242;2024-03-23T02:20:25;12.52;;;6.65;;
61127;SDS011;47013;42.664;23.242;2024-03-23T02:22:52;11.88;;;6.38;;
61127;SDS011;47013;42.664;23.242;2024-03-23T02:25:20;12.77;;;7.63;;
61127;SDS011;47013;42.664;23.242;2024-03-23T02:27:45;14.60;;;7.75;;
61127;SDS011;47013;42.664;23.242;2024-03-23T02:30:11;12.18;;;6.38;;
61127;SDS011;47013;42.664;23.242;2024-03-23T02:32:36;11.80;;;6.07;;
61127;SDS011;47013;42.664;23.242;2024-03-23T02:35:02;8.93;;;4.40;;
61127;SDS011;47013;42.664;23.242;2024-03-23T02:37:27;10.35;;;5.20;;
61127;SDS011;47013;42.664;23.242;2024-03-23T02:39:52;9.95;;;4.53;;
61127;SDS011;47013;42.664;23.242;2024-03-23T02:42:18;9.88;;;4.65;;
61127;SDS011;47013;42.664;23.242;2024-03-23T02:44:44;8.13;;;3.70;;
61127;SDS011;47013;42.664;23.242;2024-03-23T02:47:10;8.70;;;3.70;;
61127;SDS011;47013;42.664;23.242;2024-03-23T02:49:35;8.07;;;3.55;;
61127;SDS011;47013;42.664;23.242;2024-03-23T02:52:00;7.55;;;3.50;;
61127;SDS011;47013;42.664;23.242;2024-03-23T02:54:26;7.50;;;3.60;;
61127;SDS011;47013;42.664;23.242;2024-03-23T02:56:51;9.73;;;3.65;;
61127;SDS011;47013;42.664;23.242;2024-03-23T02:59:17;8.25;;;3.70;;
61127;SDS011;47013;42.664;23.242;2024-03-23T03:01:42;9.07;;;4.05;;
61127;SDS011;47013;42.664;23.242;2024-03-23T03:04:07;7.75;;;3.65;;
61127;SDS011;47013;42.664;23.242;2024-03-23T03:06:33;8.85;;;4.20;;
61127;SDS011;47013;42.664;23.242;2024-03-23T03:08:58;9.73;;;4.40;;
61127;SDS011;47013;42.664;23.242;2024-03-23T03:11:24;11.13;;;4.53;;
61127;SDS011;47013;42.664;23.242;2024-03-23T03:13:49;10.30;;;4.60;;
61127;SDS011;47013;42.664;23.242;2024-03-23T03:16:15;10.15;;;5.00;;
61127;SDS011;47013;42.664;23.242;2024-03-23T03:18:40;12.95;;;5.40;;
61127;SDS011;47013;42.664;23.242;2024-03-23T03:21:06;12.38;;;5.80;;
61127;SDS011;47013;42.664;23.242;2024-03-23T03:23:36;10.70;;;5.78;;
61127;SDS011;47013;42.664;23.242;2024-03-23T03:26:02;11.60;;;6.15;;
61127;SDS011;47013;42.664;23.242;2024-03-23T03:28:28;13.32;;;6.63;;
61127;SDS011;47013;42.664;23.242;2024-03-23T03:30:55;12.15;;;6.47;;
61127;SDS011;47013;42.664;23.242;2024-03-23T03:33:21;12.10;;;6.43;;
61127;SDS011;47013;42.664;23.242;2024-03-23T03:35:46;11.95;;;6.90;;
61127;SDS011;47013;42.664;23.242;2024-03-23T03:38:12;15.18;;;6.93;;
61127;SDS011;47013;42.664;23.242;2024-03-23T03:40:37;13.45;;;6.63;;
61127;SDS011;47013;42.664;23.242;2024-03-23T03:43:03;15.52;;;7.18;;
61127;SDS011;47013;42.664;23.242;2024-03-23T03:45:28;14.15;;;7.38;;
61127;SDS011;47013;42.664;23.242;2024-03-23T03:47:53;13.57;;;7.57;;
61127;SDS011;47013;42.664;23.242;2024-03-23T03:50:19;15.68;;;7.32;;
61127;SDS011;47013;42.664;23.242;2024-03-23T03:52:46;13.77;;;7.50;;
61127;SDS011;47013;42.664;23.242;2024-03-23T03:55:13;20.23;;;9.68;;
61127;SDS011;47013;42.664;23.242;2024-03-23T03:57:40;17.38;;;9.80;;
61127;SDS011;47013;42.664;23.242;2024-03-23T04:00:05;18.08;;;8.55;;
61127;SDS011;47013;42.664;23.242;2024-03-23T04:02:32;13.85;;;7.45;;
61127;SDS011;47013;42.664;23.242;2024-03-23T04:04:57;15.07;;;8.05;;
61127;SDS011;47013;42.664;23.242;2024-03-23T04:07:22;12.68;;;6.80;;
61127;SDS011;47013;42.664;23.242;2024-03-23T04:09:48;15.23;;;7.82;;
61127;SDS011;47013;42.664;23.242;2024-03-23T04:12:14;13.15;;;7.15;;
61127;SDS011;47013;42.664;23.242;2024-03-23T04:14:40;12.07;;;6.55;;
61127;SDS011;47013;42.664;23.242;2024-03-23T04:17:06;13.45;;;7.05;;
61127;SDS011;47013;42.664;23.242;2024-03-23T04:19:31;14.20;;;7.32;;
61127;SDS011;47013;42.664;23.242;2024-03-23T04:21:57;12.60;;;7.30;;
61127;SDS011;47013;42.664;23.242;2024-03-23T04:24:22;11.80;;;6.68;;
61127;SDS011;47013;42.664;23.242;2024-03-23T04:26:48;12.27;;;6.80;;
61127;SDS011;47013;42.664;23.242;2024-03-23T04:29:13;13.00;;;6.88;;
61127;SDS011;47013;42.664;23.242;2024-03-23T04:31:38;11.85;;;6.47;;
61127;SDS011;47013;42.664;23.242;2024-03-23T04:34:04;13.20;;;6.68;;
61127;SDS011;47013;42.664;23.242;2024-03-23T04:36:30;12.02;;;6.78;;
61127;SDS011;47013;42.664;23.242;2024-03-23T04:38:56;11.48;;;6.50;;
61127;SDS011;47013;42.664;23.242;2024-03-23T04:41:22;13.20;;;6.80;;
61127;SDS011;47013;42.664;23.242;2024-03-23T04:43:48;16.92;;;7.25;;
61127;SDS011;47013;42.664;23.242;2024-03-23T04:46:13;13.02;;;6.63;;
61127;SDS011;47013;42.664;23.242;2024-03-23T04:48:38;17.55;;;7.10;;
61127;SDS011;47013;42.664;23.242;2024-03-23T04:51:04;16.00;;;8.27;;
61127;SDS011;47013;42.664;23.242;2024-03-23T04:53:29;17.95;;;8.18;;
61127;SDS011;47013;42.664;23.242;2024-03-23T04:55:55;19.38;;;8.73;;
61127;SDS011;47013;42.664;23.242;2024-03-23T04:58:24;16.00;;;8.77;;
61127;SDS011;47013;42.664;23.242;2024-03-23T05:00:55;15.68;;;8.90;;
61127;SDS011;47013;42.664;23.242;2024-03-23T05:03:21;14.15;;;8.55;;
61127;SDS011;47013;42.664;23.242;2024-03-23T05:05:47;13.88;;;7.90;;
61127;SDS011;47013;42.664;23.242;2024-03-23T05:08:13;14.75;;;7.55;;
61127;SDS011;47013;42.664;23.242;2024-03-23T05:10:41;16.90;;;7.53;;
61127;SDS011;47013;42.664;23.242;2024-03-23T05:13:06;13.80;;;7.00;;
61127;SDS011;47013;42.664;23.242;2024-03-23T05:15:32;13.50;;;7.00;;
61127;SDS011;47013;42.664;23.242;2024-03-23T05:17:57;12.68;;;6.65;;
61127;SDS011;47013;42.664;23.242;2024-03-23T05:20:23;12.18;;;6.25;;
61127;SDS011;47013;42.664;23.242;2024-03-23T05:22:49;12.70;;;6.55;;
61127;SDS011;47013;42.664;23.242;2024-03-23T05:25:15;14.20;;;6.55;;
61127;SDS011;47013;42.664;23.242;2024-03-23T05:27:41;14.68;;;6.53;;
61127;SDS011;47013;42.664;23.242;2024-03-23T05:30:06;13.48;;;6.50;;
61127;SDS011;47013;42.664;23.242;2024-03-23T05:32:32;13.75;;;6.75;;
61127;SDS011;47013;42.664;23.242;2024-03-23T05:34:57;14.18;;;6.72;;
61127;SDS011;47013;42.664;23.242;2024-03-23T05:37:23;13.30;;;7.07;;
61127;SDS011;47013;42.664;23.242;2024-03-23T05:39:49;15.70;;;6.95;;
61127;SDS011;47013;42.664;23.242;2024-03-23T05:42:15;15.98;;;6.72;;
61127;SDS011;47013;42.664;23.242;2024-03-23T05:44:46;14.48;;;7.45;;
61127;SDS011;47013;42.664;23.242;2024-03-23T05:49:39;12.88;;;7.00;;
61127;SDS011;47013;42.664;23.242;2024-03-23T05:52:06;13.05;;;7.00;;
61127;SDS011;47013;42.664;23.242;2024-03-23T05:54:33;16.65;;;8.07;;
61127;SDS011;47013;42.664;23.242;2024-03-23T05:56:58;14.82;;;7.70;;
61127;SDS011;47013;42.664;23.242;2024-03-23T05:59:24;14.02;;;7.68;;
61127;SDS011;47013;42.664;23.242;2024-03-23T06:01:49;13.73;;;7.47;;
61127;SDS011;47013;42.664;23.242;2024-03-23T06:04:15;14.07;;;7.70;;
61127;SDS011;47013;42.664;23.242;2024-03-23T06:06:40;13.15;;;7.50;;
61127;SDS011;47013;42.664;23.242;2024-03-23T06:09:05;15.60;;;7.70;;
61127;SDS011;47013;42.664;23.242;2024-03-23T06:11:31;15.88;;;7.47;;
61127;SDS011;47013;42.664;23.242;2024-03-23T06:13:56;12.10;;;7.07;;
61127;SDS011;47013;42.664;23.242;2024-03-23T06:16:22;15.52;;;7.93;;
61127;SDS011;47013;42.664;23.242;2024-03-23T06:18:52;16.05;;;8.55;;
61127;SDS011;47013;42.664;23.242;2024-03-23T06:21:18;19.50;;;9.25;;
61127;SDS011;47013;42.664;23.242;2024-03-23T06:23:44;20.35;;;8.88;;
61127;SDS011;47013;42.664;23.242;2024-03-23T06:26:17;17.55;;;8.50;;
61127;SDS011;47013;42.664;23.242;2024-03-23T06:28:45;17.58;;;7.95;;
61127;SDS011;47013;42.664;23.242;2024-03-23T06:31:11;17.90;;;7.97;;
61127;SDS011;47013;42.664;23.242;2024-03-23T06:33:37;16.00;;;7.72;;
61127;SDS011;47013;42.664;23.242;2024-03-23T06:36:03;18.15;;;8.05;;
61127;SDS011;47013;42.664;23.242;2024-03-23T06:38:33;15.70;;;7.85;;
61127;SDS011;47013;42.664;23.242;2024-03-23T06:40:59;21.05;;;7.72;;
61127;SDS011;47013;42.664;23.242;2024-03-23T06:43:28;18.27;;;7.60;;
61127;SDS011;47013;42.664;23.242;2024-03-23T06:45:53;11.20;;;6.50;;
61127;SDS011;47013;42.664;23.242;2024-03-23T06:48:19;11.85;;;6.35;;
61127;SDS011;47013;42.664;23.242;2024-03-23T06:50:45;14.98;;;7.45;;
61127;SDS011;47013;42.664;23.242;2024-03-23T06:53:14;13.57;;;7.70;;
61127;SDS011;47013;42.664;23.242;2024-03-23T06:55:40;14.00;;;8.20;;
61127;SDS011;47013;42.664;23.242;2024-03-23T06:58:05;17.85;;;8.02;;
61127;SDS011;47013;42.664;23.242;2024-03-23T07:00:31;18.08;;;7.88;;
61127;SDS011;47013;42.664;23.242;2024-03-23T07:02:57;15.45;;;8.20;;
61127;SDS011;47013;42.664;23.242;2024-03-23T07:05:22;15.15;;;8.25;;
61127;SDS011;47013;42.664;23.242;2024-03-23T07:07:48;13.48;;;7.75;;
61127;SDS011;47013;42.664;23.242;2024-03-23T07:10:13;14.98;;;8.30;;
61127;SDS011;47013;42.664;23.242;2024-03-23T07:12:38;13.90;;;7.45;;
61127;SDS011;47013;42.664;23.242;2024-03-23T07:15:04;17.17;;;8.38;;
61127;SDS011;47013;42.664;23.242;2024-03-23T07:17:29;16.17;;;7.63;;
61127;SDS011;47013;42.664;23.242;2024-03-23T07:19:55;15.70;;;8.52;;
61127;SDS011;47013;42.664;23.242;2024-03-23T07:22:20;20.88;;;9.23;;
61127;SDS011;47013;42.664;23.242;2024-03-23T07:24:46;17.15;;;8.10;;
61127;SDS011;47013;42.664;23.242;2024-03-23T07:27:12;15.93;;;8.40;;
61127;SDS011;47013;42.664;23.242;2024-03-23T07:29:37;17.45;;;8.70;;
61127;SDS011;47013;42.664;23.242;2024-03-23T07:32:02;15.25;;;8.63;;
61127;SDS011;47013;42.664;23.242;2024-03-23T07:34:28;15.48;;;7.80;;
61127;SDS011;47013;42.664;23.242;2024-03-23T07:36:53;14.98;;;8.20;;
61127;SDS011;47013;42.664;23.242;2024-03-23T07:39:19;14.80;;;8.00;;
61127;SDS011;47013;42.664;23.242;2024-03-23T07:41:44;15.23;;;8.32;;
61127;SDS011;47013;42.664;23.242;2024-03-23T07:44:10;13.52;;;8.15;;
61127;SDS011;47013;42.664;23.242;2024-03-23T07:46:35;15.23;;;8.18;;
61127;SDS011;47013;42.664;23.242;2024-03-23T07:49:01;17.05;;;8.30;;
61127;SDS011;47013;42.664;23.242;2024-03-23T07:51:26;19.52;;;8.05;;
61127;SDS011;47013;42.664;23.242;2024-03-23T07:53:52;12.73;;;7.60;;
61127;SDS011;47013;42.664;23.242;2024-03-23T07:56:18;14.77;;;7.93;;
61127;SDS011;47013;42.664;23.242;2024-03-23T07:58:45;16.75;;;8.00;;
61127;SDS011;47013;42.664;23.242;2024-03-23T08:01:14;13.60;;;7.75;;
61127;SDS011;47013;42.664;23.242;2024-03-23T08:03:42;15.25;;;8.07;;
61127;SDS011;47013;42.664;23.242;2024-03-23T08:06:18;13.23;;;7.43;;
61127;SDS011;47013;42.664;23.242;2024-03-23T08:08:45;18.42;;;7.88;;
61127;SDS011;47013;42.664;23.242;2024-03-23T08:11:12;13.10;;;7.70;;
61127;SDS011;47013;42.664;23.242;2024-03-23T08:13:39;19.10;;;7.55;;
61127;SDS011;47013;42.664;23.242;2024-03-23T08:16:05;14.90;;;7.93;;
61127;SDS011;47013;42.664;23.242;2024-03-23T08:18:30;15.27;;;8.30;;
61127;SDS011;47013;42.664;23.242;2024-03-23T08:21:00;15.52;;;8.10;;
61127;SDS011;47013;42.664;23.242;2024-03-23T08:23:29;14.43;;;8.13;;
61127;SDS011;47013;42.664;23.242;2024-03-23T08:26:06;16.65;;;8.07;;
61127;SDS011;47013;42.664;23.242;2024-03-23T08:28:33;13.98;;;8.02;;
61127;SDS011;47013;42.664;23.242;2024-03-23T08:31:02;15.38;;;7.80;;
61127;SDS011;47013;42.664;23.242;2024-03-23T08:33:30;14.18;;;7.88;;
61127;SDS011;47013;42.664;23.242;2024-03-23T08:35:56;15.85;;;8.43;;
61127;SDS011;47013;42.664;23.242;2024-03-23T08:38:24;19.88;;;8.02;;
61127;SDS011;47013;42.664;23.242;2024-03-23T08:40:56;14.25;;;7.90;;
61127;SDS011;47013;42.664;23.242;2024-03-23T08:43:29;15.05;;;7.82;;
61127;SDS011;47013;42.664;23.242;2024-03-23T08:46:06;14.80;;;8.43;;
61127;SDS011;47013;42.664;23.242;2024-03-23T08:51:01;13.80;;;8.00;;
61127;SDS011;47013;42.664;23.242;2024-03-23T08:53:27;18.48;;;8.30;;
61127;SDS011;47013;42.664;23.242;2024-03-23T08:55:54;16.17;;;8.20;;
61127;SDS011;47013;42.664;23.242;2024-03-23T08:58:20;14.07;;;7.97;;
61127;SDS011;47013;42.664;23.242;2024-03-23T09:00:46;20.15;;;8.60;;
61127;SDS011;47013;42.664;23.242;2024-03-23T09:03:11;17.30;;;8.50;;
61127;SDS011;47013;42.664;23.242;2024-03-23T09:05:40;16.80;;;9.60;;
61127;SDS011;47013;42.664;23.242;2024-03-23T09:10:31;16.75;;;8.10;;
61127;SDS011;47013;42.664;23.242;2024-03-23T09:12:57;17.75;;;8.15;;
61127;SDS011;47013;42.664;23.242;2024-03-23T09:15:22;15.07;;;8.15;;
61127;SDS011;47013;42.664;23.242;2024-03-23T09:17:48;14.35;;;8.02;;
61127;SDS011;47013;42.664;23.242;2024-03-23T09:20:13;18.25;;;8.18;;
61127;SDS011;47013;42.664;23.242;2024-03-23T09:22:38;18.13;;;7.93;;
61127;SDS011;47013;42.664;23.242;2024-03-23T09:25:04;13.52;;;7.80;;
61127;SDS011;47013;42.664;23.242;2024-03-23T09:27:30;15.73;;;8.23;;
61127;SDS011;47013;42.664;23.242;2024-03-23T09:29:55;18.00;;;7.63;;
61127;SDS011;47013;42.664;23.242;2024-03-23T09:32:21;17.20;;;8.13;;
61127;SDS011;47013;42.664;23.242;2024-03-23T09:34:46;15.65;;;7.72;;
61127;SDS011;47013;42.664;23.242;2024-03-23T09:37:11;13.15;;;7.65;;
61127;SDS011;47013;42.664;23.242;2024-03-23T09:39:37;14.50;;;7.78;;
61127;SDS011;47013;42.664;23.242;2024-03-23T09:42:02;16.17;;;7.28;;
61127;SDS011;47013;42.664;23.242;2024-03-23T09:44:29;13.57;;;7.10;;
61127;SDS011;47013;42.664;23.242;2024-03-23T09:46:54;13.23;;;7.20;;
61127;SDS011;47013;42.664;23.242;2024-03-23T09:49:20;15.43;;;6.82;;
61127;SDS011;47013;42.664;23.242;2024-03-23T09:51:46;15.23;;;7.30;;
61127;SDS011;47013;42.664;23.242;2024-03-23T09:54:11;16.05;;;7.35;;
61127;SDS011;47013;42.664;23.242;2024-03-23T09:56:37;19.90;;;7.85;;
61127;SDS011;47013;42.664;23.242;2024-03-23T09:59:02;16.23;;;7.47;;
61127;SDS011;47013;42.664;23.242;2024-03-23T10:01:31;13.90;;;7.15;;
61127;SDS011;47013;42.664;23.242;2024-03-23T10:03:57;15.50;;;6.65;;
61127;SDS011;47013;42.664;23.242;2024-03-23T10:06:23;13.48;;;6.60;;
61127;SDS011;47013;42.664;23.242;2024-03-23T10:08:52;13.02;;;6.70;;
61127;SDS011;47013;42.664;23.242;2024-03-23T10:11:18;15.27;;;6.68;;
61127;SDS011;47013;42.664;23.242;2024-03-23T10:13:44;11.13;;;6.50;;
61127;SDS011;47013;42.664;23.242;2024-03-23T10:16:11;11.27;;;5.97;;
61127;SDS011;47013;42.664;23.242;2024-03-23T10:18:37;14.63;;;5.95;;
61127;SDS011;47013;42.664;23.242;2024-03-23T10:21:07;11.82;;;5.95;;
61127;SDS011;47013;42.664;23.242;2024-03-23T10:23:40;11.20;;;5.80;;
61127;SDS011;47013;42.664;23.242;2024-03-23T10:28:59;11.50;;;5.90;;
61127;SDS011;47013;42.664;23.242;2024-03-23T10:31:29;13.45;;;5.65;;
61127;SDS011;47013;42.664;23.242;2024-03-23T10:33:56;10.63;;;5.78;;
61127;SDS011;47013;42.664;23.242;2024-03-23T10:36:21;12.48;;;5.53;;
61127;SDS011;47013;42.664;23.242;2024-03-23T10:38:47;11.57;;;6.35;;
61127;SDS011;47013;42.664;23.242;2024-03-23T10:41:15;15.15;;;7.40;;
61127;SDS011;47013;42.664;23.242;2024-03-23T10:43:42;12.38;;;5.82;;
61127;SDS011;47013;42.664;23.242;2024-03-23T10:46:09;12.23;;;6.05;;
61127;SDS011;47013;42.664;23.242;2024-03-23T10:48:35;13.82;;;7.10;;
61127;SDS011;47013;42.664;23.242;2024-03-23T10:51:00;13.02;;;5.88;;
61127;SDS011;47013;42.664;23.242;2024-03-23T10:53:26;13.50;;;5.88;;
61127;SDS011;47013;42.664;23.242;2024-03-23T10:55:53;13.43;;;6.30;;
61127;SDS011;47013;42.664;23.242;2024-03-23T10:58:42;10.80;;;5.73;;
61127;SDS011;47013;42.664;23.242;2024-03-23T11:01:11;13.95;;;5.32;;
61127;SDS011;47013;42.664;23.242;2024-03-23T11:03:38;14.50;;;5.28;;
61127;SDS011;47013;42.664;23.242;2024-03-23T11:06:05;12.48;;;5.55;;
61127;SDS011;47013;42.664;23.242;2024-03-23T11:08:35;10.07;;;5.07;;
61127;SDS011;47013;42.664;23.242;2024-03-23T11:11:11;10.50;;;4.65;;
61127;SDS011;47013;42.664;23.242;2024-03-23T11:13:50;5.63;;;3.05;;
61127;SDS011;47013;42.664;23.242;2024-03-23T11:16:17;6.32;;;3.08;;
61127;SDS011;47013;42.664;23.242;2024-03-23T11:18:53;13.40;;;4.50;;
61127;SDS011;47013;42.664;23.242;2024-03-23T11:24:20;6.13;;;2.70;;
61127;SDS011;47013;42.664;23.242;2024-03-23T11:26:47;6.25;;;2.90;;
61127;SDS011;47013;42.664;23.242;2024-03-23T11:29:13;11.20;;;3.67;;
61127;SDS011;47013;42.664;23.242;2024-03-23T11:31:50;6.68;;;3.17;;
61127;SDS011;47013;42.664;23.242;2024-03-23T11:34:17;4.18;;;2.35;;
61127;SDS011;47013;42.664;23.242;2024-03-23T11:36:43;5.80;;;2.70;;
61127;SDS011;47013;42.664;23.242;2024-03-23T11:41:48;5.43;;;2.70;;
61127;SDS011;47013;42.664;23.242;2024-03-23T11:44:21;8.23;;;2.30;;
61127;SDS011;47013;42.664;23.242;2024-03-23T11:46:48;6.80;;;2.58;;
61127;SDS011;47013;42.664;23.242;2024-03-23T11:54:22;6.18;;;2.45;;
61127;SDS011;47013;42.664;23.242;2024-03-23T11:56:54;4.90;;;2.38;;
61127;SDS011;47013;42.664;23.242;2024-03-23T11:59:36;4.32;;;2.00;;
61127;SDS011;47013;42.664;23.242;2024-03-23T12:02:12;4.80;;;2.30;;
61127;SDS011;47013;42.664;23.242;2024-03-23T12:04:40;5.07;;;2.30;;
61127;SDS011;47013;42.664;23.242;2024-03-23T12:07:12;4.15;;;2.00;;
61127;SDS011;47013;42.664;23.242;2024-03-23T12:09:45;4.40;;;2.00;;
61127;SDS011;47013;42.664;23.242;2024-03-23T12:12:13;1.83;;;1.40;;
61127;SDS011;47013;42.664;23.242;2024-03-23T12:14:41;4.63;;;2.30;;
61127;SDS011;47013;42.664;23.242;2024-03-23T12:17:11;2.60;;;1.77;;
61127;SDS011;47013;42.664;23.242;2024-03-23T12:19:38;3.65;;;1.70;;
61127;SDS011;47013;42.664;23.242;2024-03-23T12:22:05;2.30;;;1.42;;
61127;SDS011;47013;42.664;23.242;2024-03-23T12:24:32;1.60;;;1.30;;
61127;SDS011;47013;42.664;23.242;2024-03-23T12:27:02;4.90;;;2.00;;
61127;SDS011;47013;42.664;23.242;2024-03-23T12:29:30;4.97;;;1.85;;
61127;SDS011;47013;42.664;23.242;2024-03-23T12:32:00;4.30;;;1.73;;
61127;SDS011;47013;42.664;23.242;2024-03-23T12:34:26;3.08;;;1.50;;
61127;SDS011;47013;42.664;23.242;2024-03-23T12:36:52;6.30;;;2.10;;
61127;SDS011;47013;42.664;23.242;2024-03-23T12:39:18;2.55;;;1.70;;
61127;SDS011;47013;42.664;23.242;2024-03-23T12:41:44;5.82;;;2.03;;
61127;SDS011;47013;42.664;23.242;2024-03-23T12:44:09;4.20;;;2.00;;
61127;SDS011;47013;42.664;23.242;2024-03-23T12:46:37;4.03;;;1.90;;
61127;SDS011;47013;42.664;23.242;2024-03-23T12:49:03;4.38;;;1.90;;
61127;SDS011;47013;42.664;23.242;2024-03-23T12:51:29;2.85;;;1.70;;
61127;SDS011;47013;42.664;23.242;2024-03-23T12:53:54;4.57;;;1.90;;
61127;SDS011;47013;42.664;23.242;2024-03-23T12:56:20;3.28;;;1.73;;
61127;SDS011;47013;42.664;23.242;2024-03-23T12:58:45;3.22;;;1.73;;
61127;SDS011;47013;42.664;23.242;2024-03-23T13:01:15;3.55;;;1.77;;
61127;SDS011;47013;42.664;23.242;2024-03-23T13:03:40;4.38;;;1.80;;
61127;SDS011;47013;42.664;23.242;2024-03-23T13:06:06;5.68;;;2.20;;
61127;SDS011;47013;42.664;23.242;2024-03-23T13:08:32;5.50;;;1.90;;
61127;SDS011;47013;42.664;23.242;2024-03-23T13:10:58;3.72;;;2.10;;
61127;SDS011;47013;42.664;23.242;2024-03-23T13:13:23;5.20;;;1.80;;
61127;SDS011;47013;42.664;23.242;2024-03-23T13:15:52;4.45;;;1.80;;
61127;SDS011;47013;42.664;23.242;2024-03-23T13:18:17;4.43;;;1.70;;
61127;SDS011;47013;42.664;23.242;2024-03-23T13:20:42;6.15;;;2.10;;
61127;SDS011;47013;42.664;23.242;2024-03-23T13:23:08;2.40;;;1.63;;
61127;SDS011;47013;42.664;23.242;2024-03-23T13:25:33;4.30;;;1.83;;
61127;SDS011;47013;42.664;23.242;2024-03-23T13:27:59;4.00;;;1.85;;
61127;SDS011;47013;42.664;23.242;2024-03-23T13:30:26;4.13;;;1.90;;
61127;SDS011;47013;42.664;23.242;2024-03-23T13:32:51;4.22;;;1.80;;
61127;SDS011;47013;42.664;23.242;2024-03-23T13:35:16;4.00;;;2.00;;
61127;SDS011;47013;42.664;23.242;2024-03-23T13:37:42;3.97;;;2.00;;
61127;SDS011;47013;42.664;23.242;2024-03-23T13:40:08;4.18;;;1.98;;
61127;SDS011;47013;42.664;23.242;2024-03-23T13:42:33;4.15;;;1.70;;
61127;SDS011;47013;42.664;23.242;2024-03-23T13:44:59;5.28;;;1.90;;
61127;SDS011;47013;42.664;23.242;2024-03-23T13:47:24;4.60;;;2.00;;
61127;SDS011;47013;42.664;23.242;2024-03-23T13:49:50;5.32;;;2.10;;
61127;SDS011;47013;42.664;23.242;2024-03-23T13:52:15;4.80;;;2.20;;
61127;SDS011;47013;42.664;23.242;2024-03-23T13:54:41;4.47;;;2.03;;
61127;SDS011;47013;42.664;23.242;2024-03-23T13:57:11;7.07;;;3.65;;
61127;SDS011;47013;42.664;23.242;2024-03-23T13:59:36;4.20;;;2.15;;
61127;SDS011;47013;42.664;23.242;2024-03-23T14:02:02;5.25;;;2.20;;
61127;SDS011;47013;42.664;23.242;2024-03-23T14:04:27;7.85;;;2.70;;
61127;SDS011;47013;42.664;23.242;2024-03-23T14:06:52;3.65;;;2.15;;
61127;SDS011;47013;42.664;23.242;2024-03-23T14:09:18;6.53;;;2.55;;
61127;SDS011;47013;42.664;23.242;2024-03-23T14:11:47;5.65;;;2.40;;
61127;SDS011;47013;42.664;23.242;2024-03-23T14:14:13;8.07;;;2.50;;
61127;SDS011;47013;42.664;23.242;2024-03-23T14:16:38;6.43;;;2.47;;
61127;SDS011;47013;42.664;23.242;2024-03-23T14:19:03;5.60;;;2.70;;
61127;SDS011;47013;42.664;23.242;2024-03-23T14:23:57;6.10;;;2.53;;
61127;SDS011;47013;42.664;23.242;2024-03-23T14:26:22;5.68;;;2.53;;
61127;SDS011;47013;42.664;23.242;2024-03-23T14:28:48;3.47;;;2.03;;
61127;SDS011;47013;42.664;23.242;2024-03-23T14:31:15;7.38;;;3.00;;
61127;SDS011;47013;42.664;23.242;2024-03-23T14:33:41;6.82;;;3.00;;
61127;SDS011;47013;42.664;23.242;2024-03-23T14:36:11;7.72;;;2.95;;
61127;SDS011;47013;42.664;23.242;2024-03-23T14:38:37;8.00;;;2.50;;
61127;SDS011;47013;42.664;23.242;2024-03-23T14:41:03;7.38;;;2.75;;
61127;SDS011;47013;42.664;23.242;2024-03-23T14:43:29;7.90;;;2.55;;
61127;SDS011;47013;42.664;23.242;2024-03-23T14:46:11;6.65;;;2.63;;
61127;SDS011;47013;42.664;23.242;2024-03-23T14:48:41;5.28;;;2.58;;
61127;SDS011;47013;42.664;23.242;2024-03-23T14:51:07;5.88;;;2.70;;
61127;SDS011;47013;42.664;23.242;2024-03-23T14:53:34;5.82;;;2.50;;
61127;SDS011;47013;42.664;23.242;2024-03-23T14:56:01;6.07;;;2.60;;
61127;SDS011;47013;42.664;23.242;2024-03-23T14:58:28;5.13;;;2.38;;
61127;SDS011;47013;42.664;23.242;2024-03-23T15:01:04;5.88;;;2.83;;
61127;SDS011;47013;42.664;23.242;2024-03-23T15:03:33;5.13;;;2.67;;
61127;SDS011;47013;42.664;23.242;2024-03-23T15:05:59;5.25;;;2.80;;
61127;SDS011;47013;42.664;23.242;2024-03-23T15:08:25;6.50;;;2.63;;
61127;SDS011;47013;42.664;23.242;2024-03-23T15:10:50;7.05;;;2.47;;
61127;SDS011;47013;42.664;23.242;2024-03-23T15:13:16;7.40;;;2.58;;
61127;SDS011;47013;42.664;23.242;2024-03-23T15:15:42;6.10;;;2.80;;
61127;SDS011;47013;42.664;23.242;2024-03-23T15:18:13;9.55;;;2.40;;
61127;SDS011;47013;42.664;23.242;2024-03-23T15:20:40;5.65;;;2.63;;
61127;SDS011;47013;42.664;23.242;2024-03-23T15:23:06;4.32;;;2.40;;
61127;SDS011;47013;42.664;23.242;2024-03-23T15:25:31;5.68;;;2.45;;
61127;SDS011;47013;42.664;23.242;2024-03-23T15:27:57;4.90;;;2.40;;
61127;SDS011;47013;42.664;23.242;2024-03-23T15:30:24;4.47;;;2.50;;
61127;SDS011;47013;42.664;23.242;2024-03-23T15:32:49;4.45;;;2.55;;
61127;SDS011;47013;42.664;23.242;2024-03-23T15:35:15;5.95;;;2.42;;
61127;SDS011;47013;42.664;23.242;2024-03-23T15:37:40;6.13;;;2.70;;
61127;SDS011;47013;42.664;23.242;2024-03-23T15:40:09;4.30;;;2.40;;